createdAt,value
2022-08-09T00:00:00.051Z,3.53
2022-08-09T00:02:33.499Z,2.90
2022-08-09T00:05:02.882Z,3.55
2022-08-09T00:07:44.897Z,3.53
2022-08-09T00:10:08.887Z,3.28
2022-08-09T00:12:40.649Z,3.85
2022-08-09T00:15:07.115Z,3.03
2022-08-09T00:18:06.044Z,3.13
2022-08-09T00:20:21.275Z,4.32
2022-08-09T00:22:47.092Z,3.63
2022-08-09T00:25:12.866Z,3.40
2022-08-09T00:27:43.207Z,3.83
2022-08-09T00:30:24.755Z,3.42
2022-08-09T00:32:49.682Z,4.13
2022-08-09T00:35:14.118Z,3.30
2022-08-09T00:37:37.837Z,3.10
2022-08-09T00:40:12.596Z,3.45
2022-08-09T00:44:10.640Z,3.63
2022-08-09T00:45:23.379Z,3.60
2022-08-09T00:47:48.787Z,3.30
2022-08-09T00:50:14.330Z,3.03
2022-08-09T00:52:38.397Z,3.85
2022-08-09T00:55:01.853Z,3.77
2022-08-09T01:00:00.673Z,2.97
2022-08-09T01:02:28.348Z,3.63
2022-08-09T01:04:54.675Z,4.40
2022-08-09T01:07:20.796Z,3.33
2022-08-09T01:10:03.956Z,3.53
2022-08-09T01:12:32.414Z,3.97
2022-08-09T01:14:57.870Z,3.50
2022-08-09T01:17:25.398Z,4.38
2022-08-09T01:20:02.538Z,3.67
2022-08-09T01:22:54.836Z,3.67
2022-08-09T01:25:22.921Z,3.17
2022-08-09T01:27:47.556Z,2.90
2022-08-09T01:30:28.649Z,3.92
2022-08-09T01:32:58.083Z,3.63
2022-08-09T01:35:37.379Z,4.22
2022-08-09T01:38:08.249Z,3.85
2022-08-09T01:40:38.519Z,4.55
2022-08-09T01:43:04.600Z,4.10
2022-08-09T01:45:31.007Z,3.88
2022-08-09T01:47:54.354Z,3.63
2022-08-09T01:50:17.603Z,5.47
2022-08-09T01:52:41.290Z,3.90
2022-08-09T01:55:07.454Z,4.32
2022-08-09T01:57:45.788Z,4.13
2022-08-09T02:00:34.987Z,4.30
2022-08-09T02:02:55.561Z,4.55
2022-08-09T02:05:20.712Z,3.42
2022-08-09T02:08:41.054Z,3.83
2022-08-09T02:10:50.712Z,4.28
2022-08-09T02:13:14.844Z,3.55
2022-08-09T02:15:50.452Z,3.63
2022-08-09T02:18:13.976Z,4.32
2022-08-09T02:20:39.746Z,3.50
2022-08-09T02:23:07.954Z,4.30
2022-08-09T02:25:41.955Z,3.50
2022-08-09T02:28:11.541Z,3.95
2022-08-09T02:30:44.167Z,4.18
2022-08-09T02:33:14.604Z,4.80
2022-08-09T02:36:03.407Z,3.90
2022-08-09T02:38:28.805Z,4.43
2022-08-09T02:40:53.038Z,4.63
2022-08-09T02:43:19.310Z,4.30
2022-08-09T02:45:45.835Z,4.07
2022-08-09T02:48:30.898Z,3.90
2022-08-09T02:50:56.525Z,4.78
2022-08-09T02:53:26.232Z,3.60
2022-08-09T02:55:57.945Z,5.03
2022-08-09T02:58:37.218Z,5.43
2022-08-09T03:01:04.384Z,4.75
2022-08-09T03:04:05.786Z,5.05
2022-08-09T03:06:15.072Z,5.35
2022-08-09T03:08:39.423Z,5.18
2022-08-09T03:11:04.403Z,4.75
2022-08-09T03:13:27.597Z,4.18
2022-08-09T03:16:09.027Z,5.68
2022-08-09T03:18:32.753Z,5.95
2022-08-09T03:20:56.058Z,5.07
2022-08-09T03:23:24.243Z,4.80
2022-08-09T03:25:56.896Z,4.90
2022-08-09T03:28:26.914Z,5.85
2022-08-09T03:30:50.184Z,5.10
2022-08-09T03:33:18.829Z,5.75
2022-08-09T03:36:11.427Z,5.35
2022-08-09T03:38:29.152Z,5.05
2022-08-09T03:40:53.944Z,5.15
2022-08-09T03:43:17.284Z,6.47
2022-08-09T03:46:04.758Z,5.73
2022-08-09T03:48:30.732Z,4.95
2022-08-09T03:50:55.154Z,5.68
2022-08-09T03:53:20.112Z,4.60
2022-08-09T03:55:44.074Z,5.82
2022-08-09T03:58:17.091Z,5.38
2022-08-09T04:00:44.481Z,6.18
2022-08-09T04:03:08.070Z,5.87
2022-08-09T04:05:40.393Z,5.60
2022-08-09T04:08:03.969Z,5.72
2022-08-09T04:10:29.195Z,5.83
2022-08-09T04:12:53.971Z,5.32
2022-08-09T04:15:42.562Z,5.80
2022-08-09T04:18:00.701Z,6.95
2022-08-09T04:20:24.163Z,5.03
2022-08-09T04:22:50.674Z,5.15
2022-08-09T04:25:14.351Z,5.05
2022-08-09T04:27:41.603Z,5.45
2022-08-09T04:30:05.744Z,5.32
2022-08-09T04:35:01.197Z,6.07
2022-08-09T04:37:24.890Z,5.90
2022-08-09T04:40:11.288Z,5.43
2022-08-09T04:42:42.806Z,5.15
2022-08-09T04:45:06.710Z,5.85
2022-08-09T04:47:45.057Z,5.45
2022-08-09T04:50:13.404Z,5.28
2022-08-09T04:52:36.930Z,4.93
2022-08-09T04:55:02.470Z,5.88
2022-08-09T04:57:58.367Z,5.57
2022-08-09T05:00:16.606Z,4.90
2022-08-09T05:02:41.813Z,5.38
2022-08-09T05:05:09.797Z,5.60
2022-08-09T05:07:33.470Z,4.80
2022-08-09T05:09:56.704Z,5.55
2022-08-09T05:12:22.559Z,4.93
2022-08-09T05:14:47.357Z,5.20
2022-08-09T05:17:15.424Z,4.88
2022-08-09T05:19:56.859Z,5.15
2022-08-09T05:22:36.542Z,5.20
2022-08-09T05:25:03.848Z,5.05
2022-08-09T05:27:27.090Z,5.18
2022-08-09T05:29:55.874Z,4.47
2022-08-09T05:32:19.134Z,5.20
2022-08-09T05:34:46.914Z,5.10
2022-08-09T05:37:11.485Z,4.90
2022-08-09T05:39:36.507Z,4.88
2022-08-09T05:42:07.378Z,4.38
2022-08-09T05:44:32.634Z,4.47
2022-08-09T05:49:33.958Z,4.82
2022-08-09T05:52:06.137Z,4.28
2022-08-09T05:54:29.409Z,4.47
2022-08-09T05:56:54.516Z,3.47
2022-08-09T05:59:19.918Z,4.43
2022-08-09T06:01:43.638Z,3.47
2022-08-09T06:04:08.453Z,2.93
2022-08-09T06:06:31.911Z,4.65
2022-08-09T06:08:55.732Z,4.00
2022-08-09T06:11:19.047Z,3.55
2022-08-09T06:13:47.851Z,4.32
2022-08-09T06:16:11.374Z,3.67
2022-08-09T06:21:01.295Z,4.20
2022-08-09T06:23:24.639Z,3.45
2022-08-09T06:26:08.091Z,3.88
2022-08-09T06:28:32.897Z,3.60
2022-08-09T06:30:56.168Z,4.07
2022-08-09T06:33:39.648Z,4.40
2022-08-09T06:36:04.516Z,3.25
2022-08-09T06:38:35.078Z,3.55
2022-08-09T06:41:01.067Z,3.55
2022-08-09T06:43:26.857Z,4.35
2022-08-09T06:46:06.593Z,4.25
2022-08-09T06:48:34.167Z,3.58
2022-08-09T06:50:58.658Z,3.47
2022-08-09T06:53:23.322Z,3.30
2022-08-09T06:55:48.406Z,3.13
2022-08-09T07:00:46.651Z,4.20
2022-08-09T07:00:59.606Z,4.15
2022-08-09T07:03:27.921Z,4.07
2022-08-09T07:06:02.739Z,3.80
2022-08-09T07:08:29.048Z,4.65
2022-08-09T07:10:53.828Z,3.85
2022-08-09T07:13:27.660Z,4.30
2022-08-09T07:16:34.791Z,3.92
2022-08-09T07:18:36.073Z,3.50
2022-08-09T07:21:01.999Z,3.20
2022-08-09T07:23:25.381Z,4.00
2022-08-09T07:26:02.461Z,3.35
2022-08-09T07:28:28.304Z,3.28
2022-08-09T07:30:51.754Z,3.15
2022-08-09T07:33:16.704Z,3.25
2022-08-09T07:35:54.119Z,2.88
2022-08-09T07:38:18.330Z,2.50
2022-08-09T07:41:00.971Z,2.58
2022-08-09T07:43:29.094Z,3.20
2022-08-09T07:45:52.468Z,2.40
2022-08-09T07:48:25.718Z,3.10
2022-08-09T07:51:09.351Z,2.30
2022-08-09T07:54:04.194Z,2.42
2022-08-09T07:56:27.248Z,2.47
2022-08-09T07:58:52.151Z,2.40
2022-08-09T08:01:15.586Z,2.40
2022-08-09T08:03:44.847Z,2.47
2022-08-09T08:06:10.257Z,2.55
2022-08-09T08:09:02.747Z,2.58
2022-08-09T08:12:09.741Z,2.38
2022-08-09T08:14:06.305Z,2.28
2022-08-09T08:16:31.794Z,1.98
2022-08-09T08:18:55.591Z,3.10
2022-08-09T08:21:19.018Z,2.63
2022-08-09T08:23:42.515Z,3.20
2022-08-09T08:26:19.106Z,2.53
2022-08-09T08:29:02.719Z,2.92
2022-08-09T08:32:02.238Z,2.80
2022-08-09T08:34:10.708Z,2.85
2022-08-09T08:36:37.655Z,3.15
2022-08-09T08:39:03.483Z,2.65
2022-08-09T08:41:50.838Z,1.88
2022-08-09T08:44:13.819Z,2.58
2022-08-09T08:46:59.893Z,1.98
2022-08-09T08:49:29.512Z,2.17
2022-08-09T08:52:04.213Z,3.08
2022-08-09T08:54:33.911Z,2.17
2022-08-09T08:56:58.158Z,2.90
2022-08-09T08:59:22.044Z,2.60
2022-08-09T09:01:57.387Z,2.35
2022-08-09T09:04:27.440Z,2.17
2022-08-09T09:06:51.071Z,2.50
2022-08-09T09:09:21.207Z,2.90
2022-08-09T09:11:58.169Z,2.47
2022-08-09T09:14:24.552Z,2.72
2022-08-09T09:16:47.842Z,2.60
2022-08-09T09:19:37.076Z,3.23
2022-08-09T09:22:05.225Z,3.65
2022-08-09T09:24:32.398Z,2.08
2022-08-09T09:26:56.141Z,2.22
2022-08-09T09:29:19.829Z,2.30
2022-08-09T09:32:03.688Z,2.15
2022-08-09T09:34:29.030Z,2.17
2022-08-09T09:36:53.884Z,2.20
2022-08-09T09:39:20.008Z,2.08
2022-08-09T09:41:49.029Z,2.10
2022-08-09T09:44:15.659Z,2.13
2022-08-09T09:46:52.126Z,2.40
2022-08-09T09:49:56.451Z,2.08
2022-08-09T09:52:16.259Z,2.83
2022-08-09T09:54:55.192Z,2.10
2022-08-09T09:58:04.183Z,2.20
2022-08-09T10:00:03.567Z,3.57
2022-08-09T10:02:31.313Z,2.70
2022-08-09T10:05:06.509Z,3.05
2022-08-09T10:07:31.694Z,2.80
2022-08-09T10:09:56.365Z,2.17
2022-08-09T10:12:28.559Z,2.17
2022-08-09T10:14:53.793Z,2.88
2022-08-09T10:17:39.151Z,2.20
2022-08-09T10:20:01.767Z,2.55
2022-08-09T10:22:34.719Z,3.00
2022-08-09T10:24:58.310Z,2.00
2022-08-09T10:27:34.505Z,1.52
2022-08-09T10:30:43.641Z,1.85
2022-08-09T10:32:42.789Z,2.08
2022-08-09T10:35:13.803Z,2.53
2022-08-09T10:37:39.090Z,1.98
2022-08-09T10:40:02.596Z,2.17
2022-08-09T10:42:27.100Z,1.80
2022-08-09T10:48:25.834Z,1.70
2022-08-09T10:50:20.985Z,1.73
2022-08-09T10:53:05.603Z,3.15
2022-08-09T10:55:35.686Z,1.90
2022-08-09T10:58:31.063Z,1.92
2022-08-09T11:03:06.450Z,1.90
2022-08-09T11:03:50.195Z,2.72
2022-08-09T11:06:19.693Z,1.50
2022-08-09T11:08:47.206Z,1.55
2022-08-09T11:11:11.387Z,2.10
2022-08-09T11:13:53.798Z,1.45
2022-08-09T11:16:35.000Z,1.92
2022-08-09T11:18:59.336Z,2.05
2022-08-09T11:21:55.096Z,2.22
2022-08-09T11:24:22.684Z,1.85
2022-08-09T11:26:52.198Z,2.15
2022-08-09T11:30:06.119Z,2.03
2022-08-09T11:32:46.439Z,1.67
2022-08-09T11:35:14.597Z,1.98
2022-08-09T11:37:40.950Z,1.90
2022-08-09T11:40:08.183Z,1.75
2022-08-09T11:42:50.467Z,1.50
2022-08-09T11:45:26.388Z,2.05
2022-08-09T11:48:26.080Z,2.55
2022-08-09T11:53:58.799Z,1.80
2022-08-09T11:56:41.886Z,2.10
2022-08-09T11:59:12.324Z,2.78
2022-08-09T12:01:37.646Z,1.95
2022-08-09T12:04:23.595Z,2.17
2022-08-09T12:06:55.839Z,2.67
2022-08-09T12:09:25.520Z,3.17
2022-08-09T12:12:03.249Z,2.58
2022-08-09T12:14:36.937Z,3.53
2022-08-09T12:17:23.383Z,2.83
2022-08-09T12:19:50.925Z,2.03
2022-08-09T12:22:23.504Z,2.95
2022-08-09T12:24:49.584Z,2.83
2022-08-09T12:29:13.971Z,2.83
2022-08-09T12:30:36.965Z,2.85
2022-08-09T12:35:19.456Z,3.00
2022-08-09T12:37:51.875Z,2.33
2022-08-09T12:40:18.090Z,2.72
2022-08-09T12:42:45.835Z,2.92
2022-08-09T12:45:33.387Z,2.30
2022-08-09T12:47:53.371Z,2.03
2022-08-09T12:50:23.543Z,2.38
2022-08-09T12:53:08.262Z,2.00
2022-08-09T12:56:14.497Z,2.38
2022-08-09T12:58:27.431Z,2.63
2022-08-09T13:03:24.448Z,2.85
2022-08-09T13:06:13.191Z,2.25
2022-08-09T13:08:43.477Z,2.55
2022-08-09T13:11:23.348Z,1.80
2022-08-09T13:14:42.307Z,2.45
2022-08-09T13:16:41.903Z,2.03
2022-08-09T13:19:09.240Z,1.95
2022-08-09T13:23:00.419Z,2.20
2022-08-09T13:24:48.391Z,2.30
2022-08-09T13:26:59.959Z,1.98
2022-08-09T13:30:03.156Z,2.75
2022-08-09T13:32:19.458Z,2.42
2022-08-09T13:34:50.251Z,2.45
2022-08-09T13:37:24.619Z,2.72
2022-08-09T13:41:52.251Z,2.30
2022-08-09T13:42:43.022Z,2.83
2022-08-09T13:45:12.431Z,1.87
2022-08-09T13:47:43.988Z,2.45
2022-08-09T13:50:18.056Z,2.83
2022-08-09T13:52:53.538Z,2.53
2022-08-09T13:55:17.729Z,2.45
2022-08-09T13:57:42.793Z,2.83
2022-08-09T14:00:10.025Z,2.80
2022-08-09T14:02:42.636Z,3.30
2022-08-09T14:06:00.374Z,2.88
2022-08-09T14:08:04.466Z,3.03
2022-08-09T14:10:37.245Z,2.20
2022-08-09T14:13:12.168Z,2.42
2022-08-09T14:16:07.165Z,2.78
2022-08-09T14:18:34.143Z,2.28
2022-08-09T14:20:57.533Z,2.83
2022-08-09T14:23:39.919Z,3.33
2022-08-09T14:26:05.948Z,2.30
2022-08-09T14:28:30.032Z,2.72
2022-08-09T14:30:57.444Z,2.47
2022-08-09T14:33:21.533Z,2.80
2022-08-09T14:35:52.851Z,2.25
2022-08-09T14:38:16.747Z,2.80
2022-08-09T14:41:02.347Z,2.78
2022-08-09T14:43:24.183Z,2.33
2022-08-09T14:46:57.106Z,2.28
2022-08-09T14:48:32.192Z,2.83
2022-08-09T14:50:56.258Z,2.42
2022-08-09T14:53:19.653Z,2.37
2022-08-09T14:55:47.887Z,2.63
2022-08-09T14:58:13.575Z,2.78
2022-08-09T15:00:37.124Z,3.78
2022-08-09T15:03:04.021Z,2.35
2022-08-09T15:07:55.972Z,2.65
2022-08-09T15:10:20.439Z,2.75
2022-08-09T15:12:48.176Z,3.05
2022-08-09T15:15:13.396Z,3.20
2022-08-09T15:17:41.965Z,3.10
2022-08-09T15:20:11.798Z,2.13
2022-08-09T15:22:47.043Z,2.55
2022-08-09T15:25:11.128Z,2.60
2022-08-09T15:27:48.122Z,2.58
2022-08-09T15:30:48.740Z,2.80
2022-08-09T15:33:07.249Z,2.67
2022-08-09T15:35:44.417Z,2.67
2022-08-09T15:38:11.814Z,2.78
2022-08-09T15:40:35.431Z,3.00
2022-08-09T15:42:58.835Z,2.23
2022-08-09T15:45:29.568Z,3.28
2022-08-09T15:48:04.314Z,2.75
2022-08-09T15:50:31.181Z,2.97
2022-08-09T15:53:06.928Z,2.83
2022-08-09T15:56:18.083Z,2.08
2022-08-09T15:58:26.530Z,2.35
2022-08-09T16:00:50.603Z,2.65
2022-08-09T16:03:26.565Z,2.27
2022-08-09T16:05:55.942Z,1.67
2022-08-09T16:08:30.657Z,2.65
2022-08-09T16:10:57.004Z,2.20
2022-08-09T16:14:01.909Z,2.03
2022-08-09T16:16:17.259Z,2.30
2022-08-09T16:18:44.938Z,2.85
2022-08-09T16:21:08.733Z,2.65
2022-08-09T16:23:34.594Z,1.75
2022-08-09T16:26:02.769Z,2.20
2022-08-09T16:28:26.262Z,2.22
2022-08-09T16:30:58.438Z,2.15
2022-08-09T16:33:23.381Z,2.72
2022-08-09T16:35:55.822Z,2.60
2022-08-09T16:38:21.828Z,1.83
2022-08-09T16:40:47.947Z,2.15
2022-08-09T16:43:12.648Z,1.98
2022-08-09T16:45:44.398Z,1.98
2022-08-09T16:48:38.946Z,2.13
2022-08-09T16:50:59.708Z,1.88
2022-08-09T16:53:33.973Z,2.22
2022-08-09T16:56:03.666Z,1.77
2022-08-09T16:58:35.778Z,1.60
2022-08-09T17:00:59.383Z,2.08
2022-08-09T17:03:23.017Z,2.03
2022-08-09T17:06:07.160Z,2.45
2022-08-09T17:08:43.817Z,2.33
2022-08-09T17:11:12.978Z,2.53
2022-08-09T17:13:39.854Z,1.70
2022-08-09T17:16:08.381Z,1.55
2022-08-09T17:18:31.697Z,2.15
2022-08-09T17:20:55.021Z,2.08
2022-08-09T17:23:18.354Z,1.67
2022-08-09T17:25:41.599Z,1.55
2022-08-09T17:28:05.786Z,2.03
2022-08-09T17:30:30.530Z,2.78
2022-08-09T17:32:54.342Z,2.55
2022-08-09T17:35:17.627Z,2.58
2022-08-09T17:38:02.453Z,2.40
2022-08-09T17:40:25.942Z,2.03
2022-08-09T17:42:49.594Z,2.30
2022-08-09T17:45:23.709Z,2.47
2022-08-09T17:47:54.816Z,2.00
2022-08-09T17:50:36.059Z,2.50
2022-08-09T17:52:59.902Z,3.00
2022-08-09T17:55:23.419Z,2.67
2022-08-09T17:58:03.221Z,2.30
2022-08-09T18:00:39.093Z,2.83
2022-08-09T18:03:11.657Z,2.30
2022-08-09T18:05:43.364Z,3.70
2022-08-09T18:08:07.339Z,3.15
2022-08-09T18:10:34.574Z,3.17
2022-08-09T18:13:39.306Z,3.13
2022-08-09T18:16:05.097Z,2.38
2022-08-09T18:18:32.849Z,2.20
2022-08-09T18:21:17.754Z,2.38
2022-08-09T18:26:26.039Z,1.80
2022-08-09T18:30:41.058Z,2.35
2022-08-09T18:31:55.346Z,2.65
2022-08-09T18:34:17.961Z,2.10
2022-08-09T18:36:46.530Z,2.30
2022-08-09T18:39:16.163Z,2.92
2022-08-09T18:41:42.355Z,2.75
2022-08-09T18:44:16.815Z,2.65
2022-08-09T18:46:50.296Z,2.67
2022-08-09T18:49:25.424Z,2.63
2022-08-09T18:51:55.361Z,1.90
2022-08-09T18:54:28.690Z,1.90
2022-08-09T18:56:55.128Z,2.38
2022-08-09T18:59:18.544Z,3.45
2022-08-09T19:01:45.849Z,1.88
2022-08-09T19:04:10.529Z,2.67
2022-08-09T19:09:03.342Z,2.28
2022-08-09T19:11:35.314Z,2.58
2022-08-09T19:14:03.218Z,2.65
2022-08-09T19:16:35.924Z,2.83
2022-08-09T19:19:00.390Z,2.55
2022-08-09T19:21:47.765Z,2.43
2022-08-09T19:24:32.920Z,2.30
2022-08-09T19:26:52.967Z,2.75
2022-08-09T19:29:20.596Z,2.97
2022-08-09T19:31:45.872Z,2.17
2022-08-09T19:34:09.561Z,2.20
2022-08-09T19:36:45.666Z,2.80
2022-08-09T19:39:10.630Z,2.78
2022-08-09T19:41:35.652Z,3.03
2022-08-09T19:44:02.656Z,2.28
2022-08-09T19:46:33.980Z,2.22
2022-08-09T19:50:06.884Z,2.28
2022-08-09T19:51:47.934Z,3.25
2022-08-09T19:54:20.032Z,2.65
2022-08-09T19:56:46.203Z,2.33
2022-08-09T19:59:39.523Z,2.15
2022-08-09T20:02:06.365Z,2.78
2022-08-09T20:04:40.830Z,3.65
2022-08-09T20:07:21.212Z,2.63
2022-08-09T20:09:47.349Z,2.67
2022-08-09T20:12:27.019Z,2.97
2022-08-09T20:14:53.410Z,2.40
2022-08-09T20:17:17.263Z,2.50
2022-08-09T20:19:48.750Z,2.40
2022-08-09T20:22:18.471Z,2.58
2022-08-09T20:24:41.838Z,1.83
2022-08-09T20:27:08.296Z,2.13
2022-08-09T20:29:37.864Z,2.22
2022-08-09T20:32:33.021Z,2.20
2022-08-09T20:34:44.915Z,2.67
2022-08-09T20:37:09.198Z,3.45
2022-08-09T20:40:16.121Z,2.42
2022-08-09T20:42:18.022Z,2.60
2022-08-09T20:44:42.490Z,2.40
2022-08-09T20:47:48.218Z,2.60
2022-08-09T20:50:14.781Z,2.33
2022-08-09T20:52:53.656Z,2.67
2022-08-09T20:55:17.030Z,2.17
2022-08-09T20:58:05.278Z,2.63
2022-08-09T21:00:31.694Z,2.85
2022-08-09T21:02:55.442Z,2.03
2022-08-09T21:05:52.734Z,2.28
2022-08-09T21:08:06.239Z,2.88
2022-08-09T21:10:30.581Z,2.70
2022-08-09T21:15:35.076Z,2.92
2022-08-09T21:18:23.477Z,2.45
2022-08-09T21:20:42.226Z,2.97
2022-08-09T21:23:09.283Z,2.27
2022-08-09T21:25:59.729Z,2.95
2022-08-09T21:28:33.318Z,2.70
2022-08-09T21:30:58.619Z,2.97
2022-08-09T21:33:21.833Z,2.90
2022-08-09T21:35:52.493Z,2.70
2022-08-09T21:38:16.213Z,2.80
2022-08-09T21:40:40.875Z,3.15
2022-08-09T21:43:06.153Z,3.35
2022-08-09T21:45:31.047Z,2.60
2022-08-09T21:48:02.415Z,3.30
2022-08-09T21:50:35.941Z,4.30
2022-08-09T21:53:02.400Z,3.75
2022-08-09T21:55:27.167Z,3.92
2022-08-09T21:57:59.134Z,3.50
2022-08-09T22:00:25.793Z,3.42
2022-08-09T22:02:59.324Z,3.58
2022-08-09T22:05:23.765Z,3.50
2022-08-09T22:07:59.638Z,3.75
2022-08-09T22:10:24.241Z,2.92
2022-08-09T22:12:50.013Z,3.45
2022-08-09T22:15:16.893Z,3.30
2022-08-09T22:17:45.987Z,4.40
2022-08-09T22:20:16.766Z,3.35
2022-08-09T22:22:40.521Z,3.13
2022-08-09T22:26:06.969Z,2.90
2022-08-09T22:27:47.995Z,3.63
2022-08-09T22:30:13.102Z,3.92
2022-08-09T22:32:38.377Z,2.92
2022-08-09T22:35:06.875Z,3.50
2022-08-09T22:40:27.073Z,2.90
2022-08-09T22:42:51.038Z,3.40
2022-08-09T22:48:12.672Z,3.13
2022-08-09T22:48:12.888Z,3.03
2022-08-09T22:50:41.063Z,3.35
2022-08-09T22:53:17.866Z,3.20
2022-08-09T22:56:31.032Z,3.22
2022-08-09T22:58:32.628Z,3.60
2022-08-09T23:00:56.780Z,3.60
2022-08-09T23:04:04.644Z,3.83
2022-08-09T23:06:04.561Z,4.40
2022-08-09T23:08:46.304Z,4.50
2022-08-09T23:11:11.040Z,3.08
2022-08-09T23:13:34.282Z,3.85
2022-08-09T23:16:02.190Z,3.65
2022-08-09T23:18:26.913Z,3.97
2022-08-09T23:20:50.198Z,4.55
2022-08-09T23:23:13.448Z,3.20
2022-08-09T23:25:38.167Z,4.28
2022-08-09T23:28:15.336Z,4.10
2022-08-09T23:30:39.412Z,4.05
2022-08-09T23:33:05.428Z,3.63
2022-08-09T23:35:28.702Z,4.50
2022-08-09T23:37:52.086Z,3.87
2022-08-09T23:40:17.011Z,4.55
2022-08-09T23:42:41.729Z,4.15
2022-08-09T23:45:05.635Z,3.83
2022-08-09T23:47:32.048Z,4.50
2022-08-09T23:49:55.376Z,3.95
2022-08-09T23:52:18.661Z,3.72
2022-08-09T23:54:47.602Z,3.75
2022-08-09T23:57:10.884Z,4.07
2022-08-09T23:59:54.726Z,4.18
